sensor_id;sensor_type;location;lat;lon;timestamp;P1;durP1;ratioP1;P2;durP2;ratioP2
830;SDS011;397;50.564;7.272;2022-12-10T00:01:23;24.90;;;19.27;;
830;SDS011;397;50.564;7.272;2022-12-10T00:03:52;26.37;;;20.77;;
830;SDS011;397;50.564;7.272;2022-12-10T00:06:22;25.33;;;21.17;;
830;SDS011;397;50.564;7.272;2022-12-10T00:08:50;27.90;;;20.67;;
830;SDS011;397;50.564;7.272;2022-12-10T00:11:19;24.60;;;19.30;;
830;SDS011;397;50.564;7.272;2022-12-10T00:13:48;24.73;;;19.73;;
830;SDS011;397;50.564;7.272;2022-12-10T00:16:16;31.43;;;24.23;;
830;SDS011;397;50.564;7.272;2022-12-10T00:18:45;37.53;;;25.47;;
830;SDS011;397;50.564;7.272;2022-12-10T00:21:15;42.50;;;30.50;;
830;SDS011;397;50.564;7.272;2022-12-10T00:23:44;39.73;;;27.60;;
830;SDS011;397;50.564;7.272;2022-12-10T00:26:17;45.00;;;29.73;;
830;SDS011;397;50.564;7.272;2022-12-10T00:28:46;36.87;;;27.97;;
830;SDS011;397;50.564;7.272;2022-12-10T00:31:20;45.73;;;27.23;;
830;SDS011;397;50.564;7.272;2022-12-10T00:33:45;39.93;;;27.43;;
830;SDS011;397;50.564;7.272;2022-12-10T00:36:14;40.00;;;26.80;;
830;SDS011;397;50.564;7.272;2022-12-10T00:38:43;37.80;;;28.23;;
830;SDS011;397;50.564;7.272;2022-12-10T00:41:12;38.60;;;27.67;;
830;SDS011;397;50.564;7.272;2022-12-10T00:43:41;42.67;;;26.67;;
830;SDS011;397;50.564;7.272;2022-12-10T00:46:09;39.67;;;27.60;;
830;SDS011;397;50.564;7.272;2022-12-10T00:48:38;39.07;;;27.00;;
830;SDS011;397;50.564;7.272;2022-12-10T00:51:06;37.00;;;26.30;;
830;SDS011;397;50.564;7.272;2022-12-10T00:53:37;38.57;;;25.10;;
830;SDS011;397;50.564;7.272;2022-12-10T00:56:06;36.43;;;24.87;;
830;SDS011;397;50.564;7.272;2022-12-10T00:58:35;39.77;;;26.10;;
830;SDS011;397;50.564;7.272;2022-12-10T01:01:08;37.23;;;25.70;;
830;SDS011;397;50.564;7.272;2022-12-10T01:03:53;35.83;;;22.37;;
830;SDS011;397;50.564;7.272;2022-12-10T01:06:28;34.47;;;25.17;;
830;SDS011;397;50.564;7.272;2022-12-10T01:08:54;37.13;;;22.50;;
830;SDS011;397;50.564;7.272;2022-12-10T01:11:24;30.87;;;21.77;;
830;SDS011;397;50.564;7.272;2022-12-10T01:13:54;32.27;;;22.93;;
830;SDS011;397;50.564;7.272;2022-12-10T01:16:22;35.07;;;23.57;;
830;SDS011;397;50.564;7.272;2022-12-10T01:18:54;35.50;;;24.07;;
830;SDS011;397;50.564;7.272;2022-12-10T01:21:23;35.60;;;25.30;;
830;SDS011;397;50.564;7.272;2022-12-10T01:23:52;35.13;;;24.73;;
830;SDS011;397;50.564;7.272;2022-12-10T01:26:21;43.97;;;25.07;;
830;SDS011;397;50.564;7.272;2022-12-10T01:28:51;39.97;;;24.97;;
830;SDS011;397;50.564;7.272;2022-12-10T01:31:21;37.93;;;25.57;;
830;SDS011;397;50.564;7.272;2022-12-10T01:33:53;34.43;;;23.23;;
830;SDS011;397;50.564;7.272;2022-12-10T01:36:22;37.57;;;24.90;;
830;SDS011;397;50.564;7.272;2022-12-10T01:38:51;35.57;;;23.67;;
830;SDS011;397;50.564;7.272;2022-12-10T01:41:21;36.80;;;26.60;;
830;SDS011;397;50.564;7.272;2022-12-10T01:46:21;35.30;;;23.30;;
830;SDS011;397;50.564;7.272;2022-12-10T01:48:50;35.20;;;24.37;;
830;SDS011;397;50.564;7.272;2022-12-10T01:51:18;36.67;;;24.77;;
830;SDS011;397;50.564;7.272;2022-12-10T01:53:46;37.63;;;24.80;;
830;SDS011;397;50.564;7.272;2022-12-10T01:56:15;39.17;;;24.40;;
830;SDS011;397;50.564;7.272;2022-12-10T01:58:45;36.03;;;26.30;;
830;SDS011;397;50.564;7.272;2022-12-10T02:03:51;36.90;;;24.00;;
830;SDS011;397;50.564;7.272;2022-12-10T02:17:19;32.40;;;23.00;;
830;SDS011;397;50.564;7.272;2022-12-10T02:19:59;32.87;;;22.27;;
830;SDS011;397;50.564;7.272;2022-12-10T02:22:28;30.50;;;21.63;;
830;SDS011;397;50.564;7.272;2022-12-10T02:24:58;30.23;;;21.07;;
830;SDS011;397;50.564;7.272;2022-12-10T02:27:37;25.80;;;19.90;;
830;SDS011;397;50.564;7.272;2022-12-10T02:30:12;29.73;;;21.50;;
830;SDS011;397;50.564;7.272;2022-12-10T02:32:40;30.17;;;23.47;;
830;SDS011;397;50.564;7.272;2022-12-10T02:35:13;26.07;;;18.03;;
830;SDS011;397;50.564;7.272;2022-12-10T02:37:52;29.50;;;21.70;;
830;SDS011;397;50.564;7.272;2022-12-10T02:40:19;33.33;;;22.10;;
830;SDS011;397;50.564;7.272;2022-12-10T02:42:49;31.13;;;22.13;;
830;SDS011;397;50.564;7.272;2022-12-10T02:45:18;32.00;;;20.63;;
830;SDS011;397;50.564;7.272;2022-12-10T02:47:49;28.90;;;21.17;;
830;SDS011;397;50.564;7.272;2022-12-10T02:50:18;29.70;;;20.10;;
830;SDS011;397;50.564;7.272;2022-12-10T02:52:47;31.27;;;22.60;;
830;SDS011;397;50.564;7.272;2022-12-10T02:55:15;27.53;;;20.70;;
830;SDS011;397;50.564;7.272;2022-12-10T02:57:49;30.30;;;21.97;;
830;SDS011;397;50.564;7.272;2022-12-10T03:00:35;28.43;;;20.20;;
830;SDS011;397;50.564;7.272;2022-12-10T03:03:09;28.53;;;21.27;;
830;SDS011;397;50.564;7.272;2022-12-10T03:05:52;29.27;;;21.23;;
830;SDS011;397;50.564;7.272;2022-12-10T03:08:34;28.30;;;20.10;;
830;SDS011;397;50.564;7.272;2022-12-10T03:11:09;32.27;;;21.90;;
830;SDS011;397;50.564;7.272;2022-12-10T03:16:35;30.30;;;21.23;;
830;SDS011;397;50.564;7.272;2022-12-10T03:19:05;30.73;;;21.70;;
830;SDS011;397;50.564;7.272;2022-12-10T03:21:34;28.03;;;21.17;;
830;SDS011;397;50.564;7.272;2022-12-10T03:24:05;29.00;;;21.50;;
830;SDS011;397;50.564;7.272;2022-12-10T03:26:34;28.23;;;20.93;;
830;SDS011;397;50.564;7.272;2022-12-10T03:29:06;30.73;;;21.50;;
830;SDS011;397;50.564;7.272;2022-12-10T03:31:35;24.90;;;18.33;;
830;SDS011;397;50.564;7.272;2022-12-10T03:34:06;23.43;;;20.80;;
830;SDS011;397;50.564;7.272;2022-12-10T03:36:36;28.70;;;20.73;;
830;SDS011;397;50.564;7.272;2022-12-10T03:39:05;31.53;;;22.10;;
830;SDS011;397;50.564;7.272;2022-12-10T03:41:33;26.13;;;21.10;;
830;SDS011;397;50.564;7.272;2022-12-10T03:44:01;27.60;;;20.53;;
830;SDS011;397;50.564;7.272;2022-12-10T03:46:29;29.33;;;21.00;;
830;SDS011;397;50.564;7.272;2022-12-10T03:48:58;27.97;;;21.73;;
830;SDS011;397;50.564;7.272;2022-12-10T03:51:27;31.10;;;22.13;;
830;SDS011;397;50.564;7.272;2022-12-10T03:53:54;28.47;;;21.33;;
830;SDS011;397;50.564;7.272;2022-12-10T03:56:22;26.57;;;20.23;;
830;SDS011;397;50.564;7.272;2022-12-10T03:58:49;30.57;;;20.27;;
830;SDS011;397;50.564;7.272;2022-12-10T04:01:17;28.60;;;21.20;;
830;SDS011;397;50.564;7.272;2022-12-10T04:03:44;27.30;;;20.80;;
830;SDS011;397;50.564;7.272;2022-12-10T04:06:14;23.00;;;18.60;;
830;SDS011;397;50.564;7.272;2022-12-10T04:08:43;28.63;;;19.90;;
830;SDS011;397;50.564;7.272;2022-12-10T04:11:11;31.60;;;22.43;;
830;SDS011;397;50.564;7.272;2022-12-10T04:13:40;33.53;;;22.63;;
830;SDS011;397;50.564;7.272;2022-12-10T04:16:26;31.13;;;22.77;;
830;SDS011;397;50.564;7.272;2022-12-10T04:18:59;28.30;;;22.30;;
830;SDS011;397;50.564;7.272;2022-12-10T04:21:29;35.37;;;24.40;;
830;SDS011;397;50.564;7.272;2022-12-10T04:24:18;32.83;;;21.33;;
830;SDS011;397;50.564;7.272;2022-12-10T04:27:07;31.73;;;22.40;;
830;SDS011;397;50.564;7.272;2022-12-10T04:29:36;36.13;;;21.07;;
830;SDS011;397;50.564;7.272;2022-12-10T04:32:04;35.00;;;24.00;;
830;SDS011;397;50.564;7.272;2022-12-10T04:34:32;35.20;;;24.87;;
830;SDS011;397;50.564;7.272;2022-12-10T04:37:00;37.23;;;24.17;;
830;SDS011;397;50.564;7.272;2022-12-10T04:39:29;33.60;;;23.60;;
830;SDS011;397;50.564;7.272;2022-12-10T04:41:57;41.27;;;26.30;;
830;SDS011;397;50.564;7.272;2022-12-10T04:44:25;33.20;;;24.80;;
830;SDS011;397;50.564;7.272;2022-12-10T04:46:53;38.13;;;25.47;;
830;SDS011;397;50.564;7.272;2022-12-10T04:49:21;34.50;;;22.90;;
830;SDS011;397;50.564;7.272;2022-12-10T04:51:50;46.77;;;25.80;;
830;SDS011;397;50.564;7.272;2022-12-10T04:54:18;38.40;;;23.40;;
830;SDS011;397;50.564;7.272;2022-12-10T04:56:46;42.23;;;25.83;;
830;SDS011;397;50.564;7.272;2022-12-10T04:59:14;39.63;;;25.20;;
830;SDS011;397;50.564;7.272;2022-12-10T05:01:42;39.20;;;25.60;;
830;SDS011;397;50.564;7.272;2022-12-10T05:04:11;36.13;;;24.77;;
830;SDS011;397;50.564;7.272;2022-12-10T05:06:40;39.90;;;25.40;;
830;SDS011;397;50.564;7.272;2022-12-10T05:09:09;43.70;;;26.20;;
830;SDS011;397;50.564;7.272;2022-12-10T05:11:38;35.37;;;25.43;;
830;SDS011;397;50.564;7.272;2022-12-10T05:14:07;45.20;;;27.07;;
830;SDS011;397;50.564;7.272;2022-12-10T05:16:37;40.93;;;26.07;;
830;SDS011;397;50.564;7.272;2022-12-10T05:19:04;39.37;;;27.70;;
830;SDS011;397;50.564;7.272;2022-12-10T05:21:32;43.17;;;28.20;;
830;SDS011;397;50.564;7.272;2022-12-10T05:24:18;36.10;;;25.60;;
830;SDS011;397;50.564;7.272;2022-12-10T05:26:45;38.17;;;25.40;;
830;SDS011;397;50.564;7.272;2022-12-10T05:29:14;41.10;;;28.03;;
830;SDS011;397;50.564;7.272;2022-12-10T05:31:42;39.00;;;26.63;;
830;SDS011;397;50.564;7.272;2022-12-10T05:34:10;42.00;;;28.57;;
830;SDS011;397;50.564;7.272;2022-12-10T05:36:37;42.13;;;27.53;;
830;SDS011;397;50.564;7.272;2022-12-10T05:39:05;42.47;;;27.77;;
830;SDS011;397;50.564;7.272;2022-12-10T05:41:34;40.20;;;29.23;;
830;SDS011;397;50.564;7.272;2022-12-10T05:44:03;38.83;;;26.73;;
830;SDS011;397;50.564;7.272;2022-12-10T05:46:31;38.13;;;27.17;;
830;SDS011;397;50.564;7.272;2022-12-10T05:49:00;41.70;;;27.60;;
830;SDS011;397;50.564;7.272;2022-12-10T05:51:30;42.50;;;28.63;;
830;SDS011;397;50.564;7.272;2022-12-10T05:53:59;45.83;;;29.20;;
830;SDS011;397;50.564;7.272;2022-12-10T05:56:29;41.90;;;30.20;;
830;SDS011;397;50.564;7.272;2022-12-10T05:58:57;37.37;;;27.50;;
830;SDS011;397;50.564;7.272;2022-12-10T06:01:28;39.53;;;27.53;;
830;SDS011;397;50.564;7.272;2022-12-10T06:04:01;36.80;;;27.57;;
830;SDS011;397;50.564;7.272;2022-12-10T06:06:34;37.33;;;24.17;;
830;SDS011;397;50.564;7.272;2022-12-10T06:09:04;39.67;;;26.77;;
830;SDS011;397;50.564;7.272;2022-12-10T06:11:33;35.17;;;26.10;;
830;SDS011;397;50.564;7.272;2022-12-10T06:14:01;37.73;;;25.47;;
830;SDS011;397;50.564;7.272;2022-12-10T06:16:29;36.60;;;26.53;;
830;SDS011;397;50.564;7.272;2022-12-10T06:18:57;44.40;;;29.60;;
830;SDS011;397;50.564;7.272;2022-12-10T06:21:24;38.67;;;27.30;;
830;SDS011;397;50.564;7.272;2022-12-10T06:23:52;35.10;;;25.87;;
830;SDS011;397;50.564;7.272;2022-12-10T06:26:21;43.33;;;29.10;;
830;SDS011;397;50.564;7.272;2022-12-10T06:28:50;40.20;;;27.67;;
830;SDS011;397;50.564;7.272;2022-12-10T06:31:20;39.97;;;28.30;;
830;SDS011;397;50.564;7.272;2022-12-10T06:33:48;39.67;;;29.50;;
830;SDS011;397;50.564;7.272;2022-12-10T06:36:16;42.73;;;28.57;;
830;SDS011;397;50.564;7.272;2022-12-10T06:38:45;42.20;;;27.67;;
830;SDS011;397;50.564;7.272;2022-12-10T06:41:13;41.47;;;29.07;;
830;SDS011;397;50.564;7.272;2022-12-10T06:43:42;38.20;;;27.50;;
830;SDS011;397;50.564;7.272;2022-12-10T06:46:11;40.57;;;28.73;;
830;SDS011;397;50.564;7.272;2022-12-10T06:48:40;36.47;;;27.27;;
830;SDS011;397;50.564;7.272;2022-12-10T06:51:08;38.63;;;26.80;;
830;SDS011;397;50.564;7.272;2022-12-10T06:53:37;38.63;;;29.90;;
830;SDS011;397;50.564;7.272;2022-12-10T06:56:06;43.10;;;28.50;;
830;SDS011;397;50.564;7.272;2022-12-10T06:58:34;44.23;;;28.87;;
830;SDS011;397;50.564;7.272;2022-12-10T07:01:07;43.43;;;28.83;;
830;SDS011;397;50.564;7.272;2022-12-10T07:03:36;47.37;;;33.27;;
830;SDS011;397;50.564;7.272;2022-12-10T07:06:04;42.43;;;28.80;;
830;SDS011;397;50.564;7.272;2022-12-10T07:08:34;46.73;;;30.20;;
830;SDS011;397;50.564;7.272;2022-12-10T07:11:03;43.43;;;28.90;;
830;SDS011;397;50.564;7.272;2022-12-10T07:13:32;44.73;;;32.00;;
830;SDS011;397;50.564;7.272;2022-12-10T07:15:59;47.30;;;28.90;;
830;SDS011;397;50.564;7.272;2022-12-10T07:18:27;45.40;;;29.13;;
830;SDS011;397;50.564;7.272;2022-12-10T07:20:55;40.97;;;31.13;;
830;SDS011;397;50.564;7.272;2022-12-10T07:23:22;41.03;;;29.50;;
830;SDS011;397;50.564;7.272;2022-12-10T07:25:50;47.63;;;29.57;;
830;SDS011;397;50.564;7.272;2022-12-10T07:28:19;40.40;;;28.00;;
830;SDS011;397;50.564;7.272;2022-12-10T07:30:46;43.30;;;28.60;;
830;SDS011;397;50.564;7.272;2022-12-10T07:33:14;46.60;;;31.37;;
830;SDS011;397;50.564;7.272;2022-12-10T07:35:41;45.73;;;29.60;;
830;SDS011;397;50.564;7.272;2022-12-10T07:38:09;41.33;;;28.67;;
830;SDS011;397;50.564;7.272;2022-12-10T07:40:36;45.00;;;29.17;;
830;SDS011;397;50.564;7.272;2022-12-10T07:43:04;40.80;;;28.87;;
830;SDS011;397;50.564;7.272;2022-12-10T07:45:32;41.53;;;29.67;;
830;SDS011;397;50.564;7.272;2022-12-10T07:47:59;46.03;;;29.43;;
830;SDS011;397;50.564;7.272;2022-12-10T07:50:27;42.43;;;27.93;;
830;SDS011;397;50.564;7.272;2022-12-10T07:52:54;42.90;;;29.67;;
830;SDS011;397;50.564;7.272;2022-12-10T07:55:21;40.87;;;27.07;;
830;SDS011;397;50.564;7.272;2022-12-10T07:57:49;45.27;;;30.87;;
830;SDS011;397;50.564;7.272;2022-12-10T08:00:17;43.63;;;30.00;;
830;SDS011;397;50.564;7.272;2022-12-10T08:02:45;43.60;;;31.20;;
830;SDS011;397;50.564;7.272;2022-12-10T08:05:13;43.27;;;30.20;;
830;SDS011;397;50.564;7.272;2022-12-10T08:07:41;39.70;;;28.80;;
830;SDS011;397;50.564;7.272;2022-12-10T08:10:09;40.70;;;27.10;;
830;SDS011;397;50.564;7.272;2022-12-10T08:12:36;39.80;;;28.17;;
830;SDS011;397;50.564;7.272;2022-12-10T08:15:04;41.10;;;28.83;;
830;SDS011;397;50.564;7.272;2022-12-10T08:17:34;31.00;;;22.87;;
830;SDS011;397;50.564;7.272;2022-12-10T08:20:02;36.40;;;24.20;;
830;SDS011;397;50.564;7.272;2022-12-10T08:22:30;36.73;;;28.23;;
830;SDS011;397;50.564;7.272;2022-12-10T08:24:59;35.37;;;25.50;;
830;SDS011;397;50.564;7.272;2022-12-10T08:27:27;37.67;;;25.23;;
830;SDS011;397;50.564;7.272;2022-12-10T08:29:55;35.50;;;23.53;;
830;SDS011;397;50.564;7.272;2022-12-10T08:32:22;34.90;;;28.27;;
830;SDS011;397;50.564;7.272;2022-12-10T08:34:50;28.80;;;22.47;;
830;SDS011;397;50.564;7.272;2022-12-10T08:37:17;31.23;;;25.60;;
830;SDS011;397;50.564;7.272;2022-12-10T08:39:45;32.90;;;25.57;;
830;SDS011;397;50.564;7.272;2022-12-10T08:42:12;27.40;;;21.33;;
830;SDS011;397;50.564;7.272;2022-12-10T08:44:40;26.30;;;20.43;;
830;SDS011;397;50.564;7.272;2022-12-10T08:47:07;30.70;;;21.70;;
830;SDS011;397;50.564;7.272;2022-12-10T08:49:35;28.30;;;21.83;;
830;SDS011;397;50.564;7.272;2022-12-10T08:52:02;33.07;;;24.37;;
830;SDS011;397;50.564;7.272;2022-12-10T08:54:30;29.83;;;21.70;;
830;SDS011;397;50.564;7.272;2022-12-10T08:56:58;30.90;;;22.70;;
830;SDS011;397;50.564;7.272;2022-12-10T08:59:25;98.77;;;55.47;;
830;SDS011;397;50.564;7.272;2022-12-10T09:01:52;78.23;;;38.53;;
830;SDS011;397;50.564;7.272;2022-12-10T09:04:20;48.00;;;35.33;;
830;SDS011;397;50.564;7.272;2022-12-10T09:06:47;40.57;;;28.87;;
830;SDS011;397;50.564;7.272;2022-12-10T09:09:16;32.80;;;24.70;;
830;SDS011;397;50.564;7.272;2022-12-10T09:11:43;33.17;;;27.07;;
830;SDS011;397;50.564;7.272;2022-12-10T09:14:11;32.97;;;25.00;;
830;SDS011;397;50.564;7.272;2022-12-10T09:16:39;28.17;;;21.20;;
830;SDS011;397;50.564;7.272;2022-12-10T09:19:07;30.57;;;23.57;;
830;SDS011;397;50.564;7.272;2022-12-10T09:21:35;23.80;;;17.87;;
830;SDS011;397;50.564;7.272;2022-12-10T09:24:03;26.27;;;18.33;;
830;SDS011;397;50.564;7.272;2022-12-10T09:26:31;24.20;;;19.57;;
830;SDS011;397;50.564;7.272;2022-12-10T09:28:59;25.40;;;18.07;;
830;SDS011;397;50.564;7.272;2022-12-10T09:31:27;21.90;;;17.07;;
830;SDS011;397;50.564;7.272;2022-12-10T09:33:55;27.97;;;19.73;;
830;SDS011;397;50.564;7.272;2022-12-10T09:36:22;26.60;;;20.30;;
830;SDS011;397;50.564;7.272;2022-12-10T09:38:50;24.23;;;19.03;;
830;SDS011;397;50.564;7.272;2022-12-10T09:47:10;25.73;;;17.53;;
830;SDS011;397;50.564;7.272;2022-12-10T09:52:19;27.13;;;19.33;;
830;SDS011;397;50.564;7.272;2022-12-10T09:54:50;27.70;;;19.27;;
830;SDS011;397;50.564;7.272;2022-12-10T09:57:29;22.37;;;15.50;;
830;SDS011;397;50.564;7.272;2022-12-10T10:00:06;25.03;;;18.83;;
830;SDS011;397;50.564;7.272;2022-12-10T10:02:50;24.60;;;17.87;;
830;SDS011;397;50.564;7.272;2022-12-10T10:05:28;25.60;;;18.50;;
830;SDS011;397;50.564;7.272;2022-12-10T10:07:55;25.23;;;16.37;;
830;SDS011;397;50.564;7.272;2022-12-10T10:12:55;25.57;;;18.53;;
830;SDS011;397;50.564;7.272;2022-12-10T10:15:39;27.93;;;18.63;;
830;SDS011;397;50.564;7.272;2022-12-10T10:21:09;26.70;;;19.77;;
830;SDS011;397;50.564;7.272;2022-12-10T10:23:40;25.60;;;17.77;;
830;SDS011;397;50.564;7.272;2022-12-10T10:26:09;20.57;;;17.20;;
830;SDS011;397;50.564;7.272;2022-12-10T10:28:37;20.70;;;17.87;;
830;SDS011;397;50.564;7.272;2022-12-10T10:31:16;21.57;;;18.00;;
830;SDS011;397;50.564;7.272;2022-12-10T10:33:52;27.63;;;19.07;;
830;SDS011;397;50.564;7.272;2022-12-10T10:36:27;25.47;;;18.40;;
830;SDS011;397;50.564;7.272;2022-12-10T10:38:57;23.50;;;17.10;;
830;SDS011;397;50.564;7.272;2022-12-10T10:41:37;28.60;;;18.23;;
830;SDS011;397;50.564;7.272;2022-12-10T10:44:12;26.33;;;19.30;;
830;SDS011;397;50.564;7.272;2022-12-10T10:46:39;26.23;;;18.17;;
830;SDS011;397;50.564;7.272;2022-12-10T10:49:13;28.63;;;21.07;;
830;SDS011;397;50.564;7.272;2022-12-10T10:51:52;23.37;;;19.30;;
830;SDS011;397;50.564;7.272;2022-12-10T10:54:37;28.43;;;20.67;;
830;SDS011;397;50.564;7.272;2022-12-10T10:57:06;25.70;;;20.73;;
830;SDS011;397;50.564;7.272;2022-12-10T10:59:47;27.87;;;21.90;;
830;SDS011;397;50.564;7.272;2022-12-10T11:02:19;26.63;;;20.57;;
830;SDS011;397;50.564;7.272;2022-12-10T11:04:54;26.83;;;21.50;;
830;SDS011;397;50.564;7.272;2022-12-10T11:07:35;28.43;;;21.13;;
830;SDS011;397;50.564;7.272;2022-12-10T11:09:58;30.07;;;20.97;;
830;SDS011;397;50.564;7.272;2022-12-10T11:12:39;29.50;;;22.43;;
830;SDS011;397;50.564;7.272;2022-12-10T11:17:53;24.47;;;19.80;;
830;SDS011;397;50.564;7.272;2022-12-10T11:20:26;30.40;;;21.27;;
830;SDS011;397;50.564;7.272;2022-12-10T11:22:57;28.93;;;20.73;;
830;SDS011;397;50.564;7.272;2022-12-10T11:31:03;29.03;;;21.60;;
830;SDS011;397;50.564;7.272;2022-12-10T11:33:37;33.80;;;23.33;;
830;SDS011;397;50.564;7.272;2022-12-10T11:36:23;30.00;;;20.93;;
830;SDS011;397;50.564;7.272;2022-12-10T11:41:48;30.77;;;22.20;;
830;SDS011;397;50.564;7.272;2022-12-10T11:47:18;27.40;;;20.67;;
830;SDS011;397;50.564;7.272;2022-12-10T11:49:42;32.50;;;23.60;;
830;SDS011;397;50.564;7.272;2022-12-10T11:52:30;29.20;;;21.27;;
830;SDS011;397;50.564;7.272;2022-12-10T11:57:44;27.80;;;21.00;;
830;SDS011;397;50.564;7.272;2022-12-10T12:02:55;29.70;;;21.50;;
830;SDS011;397;50.564;7.272;2022-12-10T12:11:18;27.00;;;20.47;;
830;SDS011;397;50.564;7.272;2022-12-10T12:19:53;29.17;;;20.80;;
830;SDS011;397;50.564;7.272;2022-12-10T12:22:25;28.30;;;21.13;;
830;SDS011;397;50.564;7.272;2022-12-10T12:25:10;30.77;;;22.57;;
830;SDS011;397;50.564;7.272;2022-12-10T12:27:41;27.67;;;20.93;;
830;SDS011;397;50.564;7.272;2022-12-10T12:30:14;29.83;;;22.67;;
830;SDS011;397;50.564;7.272;2022-12-10T12:32:46;29.47;;;23.90;;
830;SDS011;397;50.564;7.272;2022-12-10T12:35:33;28.70;;;22.63;;
830;SDS011;397;50.564;7.272;2022-12-10T12:38:14;34.00;;;25.43;;
830;SDS011;397;50.564;7.272;2022-12-10T12:40:46;28.27;;;21.63;;
830;SDS011;397;50.564;7.272;2022-12-10T12:43:19;33.03;;;23.63;;
830;SDS011;397;50.564;7.272;2022-12-10T12:45:45;31.80;;;22.93;;
830;SDS011;397;50.564;7.272;2022-12-10T12:51:11;31.30;;;22.50;;
830;SDS011;397;50.564;7.272;2022-12-10T12:53:40;33.23;;;22.60;;
830;SDS011;397;50.564;7.272;2022-12-10T12:57:10;29.60;;;24.13;;
830;SDS011;397;50.564;7.272;2022-12-10T12:59:11;34.27;;;24.47;;
830;SDS011;397;50.564;7.272;2022-12-10T13:02:33;34.60;;;24.17;;
830;SDS011;397;50.564;7.272;2022-12-10T13:04:22;29.27;;;23.90;;
830;SDS011;397;50.564;7.272;2022-12-10T13:09:51;30.80;;;21.77;;
830;SDS011;397;50.564;7.272;2022-12-10T13:12:30;28.20;;;21.70;;
830;SDS011;397;50.564;7.272;2022-12-10T13:17:36;31.80;;;22.93;;
830;SDS011;397;50.564;7.272;2022-12-10T13:22:56;32.60;;;20.80;;
830;SDS011;397;50.564;7.272;2022-12-10T13:31:13;29.43;;;22.87;;
830;SDS011;397;50.564;7.272;2022-12-10T13:50:03;27.20;;;18.80;;
830;SDS011;397;50.564;7.272;2022-12-10T13:52:32;30.00;;;20.73;;
830;SDS011;397;50.564;7.272;2022-12-10T13:55:20;30.50;;;21.87;;
830;SDS011;397;50.564;7.272;2022-12-10T14:00:40;25.37;;;19.53;;
830;SDS011;397;50.564;7.272;2022-12-10T14:08:29;24.17;;;19.20;;
830;SDS011;397;50.564;7.272;2022-12-10T14:10:59;24.67;;;19.77;;
830;SDS011;397;50.564;7.272;2022-12-10T14:13:44;31.23;;;21.17;;
830;SDS011;397;50.564;7.272;2022-12-10T14:16:14;24.90;;;18.93;;
830;SDS011;397;50.564;7.272;2022-12-10T14:18:44;32.03;;;18.97;;
830;SDS011;397;50.564;7.272;2022-12-10T14:21:14;25.33;;;19.50;;
830;SDS011;397;50.564;7.272;2022-12-10T14:23:47;23.50;;;17.10;;
830;SDS011;397;50.564;7.272;2022-12-10T14:26:16;24.93;;;17.43;;
830;SDS011;397;50.564;7.272;2022-12-10T14:28:49;27.43;;;19.37;;
830;SDS011;397;50.564;7.272;2022-12-10T14:31:25;26.80;;;19.70;;
830;SDS011;397;50.564;7.272;2022-12-10T14:34:04;28.63;;;20.07;;
830;SDS011;397;50.564;7.272;2022-12-10T14:36:30;27.60;;;19.87;;
830;SDS011;397;50.564;7.272;2022-12-10T14:39:00;27.60;;;18.53;;
830;SDS011;397;50.564;7.272;2022-12-10T14:41:29;23.17;;;17.07;;
830;SDS011;397;50.564;7.272;2022-12-10T14:44:01;24.50;;;19.60;;
830;SDS011;397;50.564;7.272;2022-12-10T14:46:31;26.20;;;20.23;;
830;SDS011;397;50.564;7.272;2022-12-10T14:48:59;26.80;;;18.43;;
830;SDS011;397;50.564;7.272;2022-12-10T14:51:31;22.90;;;18.50;;
830;SDS011;397;50.564;7.272;2022-12-10T14:53:57;29.20;;;19.33;;
830;SDS011;397;50.564;7.272;2022-12-10T14:59:02;25.67;;;19.17;;
830;SDS011;397;50.564;7.272;2022-12-10T15:01:45;25.50;;;19.00;;
830;SDS011;397;50.564;7.272;2022-12-10T15:04:15;27.43;;;19.50;;
830;SDS011;397;50.564;7.272;2022-12-10T15:06:44;32.43;;;21.93;;
830;SDS011;397;50.564;7.272;2022-12-10T15:09:14;33.03;;;21.47;;
830;SDS011;397;50.564;7.272;2022-12-10T15:11:43;31.07;;;23.00;;
830;SDS011;397;50.564;7.272;2022-12-10T15:14:16;33.10;;;22.87;;
830;SDS011;397;50.564;7.272;2022-12-10T15:16:46;29.23;;;22.67;;
830;SDS011;397;50.564;7.272;2022-12-10T15:19:21;28.07;;;22.07;;
830;SDS011;397;50.564;7.272;2022-12-10T15:22:02;37.77;;;21.60;;
830;SDS011;397;50.564;7.272;2022-12-10T15:24:40;33.43;;;21.60;;
830;SDS011;397;50.564;7.272;2022-12-10T15:27:16;31.30;;;21.80;;
830;SDS011;397;50.564;7.272;2022-12-10T15:29:45;31.97;;;23.23;;
830;SDS011;397;50.564;7.272;2022-12-10T15:32:15;27.27;;;20.30;;
830;SDS011;397;50.564;7.272;2022-12-10T15:34:45;34.03;;;23.57;;
830;SDS011;397;50.564;7.272;2022-12-10T15:37:25;30.10;;;22.60;;
830;SDS011;397;50.564;7.272;2022-12-10T15:39:55;31.90;;;23.20;;
830;SDS011;397;50.564;7.272;2022-12-10T15:45:18;35.67;;;23.80;;
830;SDS011;397;50.564;7.272;2022-12-10T15:47:51;34.97;;;23.97;;
830;SDS011;397;50.564;7.272;2022-12-10T15:50:21;26.77;;;19.77;;
830;SDS011;397;50.564;7.272;2022-12-10T15:52:48;33.73;;;26.07;;
830;SDS011;397;50.564;7.272;2022-12-10T15:55:17;32.17;;;22.43;;
830;SDS011;397;50.564;7.272;2022-12-10T15:57:44;32.20;;;22.80;;
830;SDS011;397;50.564;7.272;2022-12-10T16:00:19;35.13;;;23.27;;
830;SDS011;397;50.564;7.272;2022-12-10T16:02:58;34.20;;;23.73;;
830;SDS011;397;50.564;7.272;2022-12-10T16:05:24;32.50;;;24.77;;
830;SDS011;397;50.564;7.272;2022-12-10T16:08:00;35.90;;;24.10;;
830;SDS011;397;50.564;7.272;2022-12-10T16:10:30;34.63;;;24.63;;
830;SDS011;397;50.564;7.272;2022-12-10T16:13:01;37.73;;;26.10;;
830;SDS011;397;50.564;7.272;2022-12-10T16:15:35;39.27;;;27.73;;
830;SDS011;397;50.564;7.272;2022-12-10T16:18:05;41.67;;;29.60;;
830;SDS011;397;50.564;7.272;2022-12-10T16:20:34;49.23;;;31.00;;
830;SDS011;397;50.564;7.272;2022-12-10T16:23:02;43.80;;;30.87;;
830;SDS011;397;50.564;7.272;2022-12-10T16:25:31;46.70;;;31.30;;
830;SDS011;397;50.564;7.272;2022-12-10T16:28:00;38.80;;;28.30;;
830;SDS011;397;50.564;7.272;2022-12-10T16:30:33;39.00;;;29.63;;
830;SDS011;397;50.564;7.272;2022-12-10T16:33:06;42.53;;;28.67;;
830;SDS011;397;50.564;7.272;2022-12-10T16:35:33;40.00;;;29.60;;
830;SDS011;397;50.564;7.272;2022-12-10T16:38:01;49.73;;;30.50;;
830;SDS011;397;50.564;7.272;2022-12-10T16:40:28;43.47;;;31.27;;
830;SDS011;397;50.564;7.272;2022-12-10T16:42:56;44.73;;;33.87;;
830;SDS011;397;50.564;7.272;2022-12-10T16:45:26;44.60;;;31.53;;
830;SDS011;397;50.564;7.272;2022-12-10T16:47:55;43.40;;;28.70;;
830;SDS011;397;50.564;7.272;2022-12-10T16:50:22;34.83;;;25.77;;
830;SDS011;397;50.564;7.272;2022-12-10T16:52:51;32.03;;;22.67;;
830;SDS011;397;50.564;7.272;2022-12-10T16:55:21;30.17;;;22.83;;
830;SDS011;397;50.564;7.272;2022-12-10T16:57:51;35.63;;;27.27;;
830;SDS011;397;50.564;7.272;2022-12-10T17:00:21;37.10;;;26.70;;
830;SDS011;397;50.564;7.272;2022-12-10T17:02:50;37.40;;;25.40;;
830;SDS011;397;50.564;7.272;2022-12-10T17:05:22;34.80;;;26.80;;
830;SDS011;397;50.564;7.272;2022-12-10T17:07:49;30.67;;;22.30;;
830;SDS011;397;50.564;7.272;2022-12-10T17:10:16;31.83;;;22.50;;
830;SDS011;397;50.564;7.272;2022-12-10T17:12:46;28.07;;;20.60;;
830;SDS011;397;50.564;7.272;2022-12-10T17:15:13;30.93;;;22.20;;
830;SDS011;397;50.564;7.272;2022-12-10T17:17:41;36.13;;;25.00;;
830;SDS011;397;50.564;7.272;2022-12-10T17:20:15;35.63;;;25.07;;
830;SDS011;397;50.564;7.272;2022-12-10T17:22:44;27.33;;;20.43;;
830;SDS011;397;50.564;7.272;2022-12-10T17:25:12;30.03;;;22.57;;
830;SDS011;397;50.564;7.272;2022-12-10T17:27:39;29.67;;;22.40;;